sensor_id;sensor_type;location;lat;lon;timestamp;P1;durP1;ratioP1;P2;durP2;ratioP2
22007;SDS011;11168;56.976;24.168;2023-12-07T00:00:19;26.70;;;12.57;;
22007;SDS011;11168;56.976;24.168;2023-12-07T00:02:46;22.73;;;12.13;;
22007;SDS011;11168;56.976;24.168;2023-12-07T00:05:13;23.40;;;11.85;;
22007;SDS011;11168;56.976;24.168;2023-12-07T00:07:40;23.33;;;11.70;;
22007;SDS011;11168;56.976;24.168;2023-12-07T00:10:07;23.60;;;12.10;;
22007;SDS011;11168;56.976;24.168;2023-12-07T00:12:34;24.10;;;11.48;;
22007;SDS011;11168;56.976;24.168;2023-12-07T00:15:02;26.73;;;13.25;;
22007;SDS011;11168;56.976;24.168;2023-12-07T00:17:29;23.77;;;13.02;;
22007;SDS011;11168;56.976;24.168;2023-12-07T00:19:56;22.70;;;11.77;;
22007;SDS011;11168;56.976;24.168;2023-12-07T00:22:26;23.27;;;12.20;;
22007;SDS011;11168;56.976;24.168;2023-12-07T00:24:55;25.90;;;12.65;;
22007;SDS011;11168;56.976;24.168;2023-12-07T00:27:24;23.13;;;12.30;;
22007;SDS011;11168;56.976;24.168;2023-12-07T00:29:51;24.05;;;13.52;;
22007;SDS011;11168;56.976;24.168;2023-12-07T00:32:18;26.73;;;13.40;;
22007;SDS011;11168;56.976;24.168;2023-12-07T00:34:46;26.23;;;14.82;;
22007;SDS011;11168;56.976;24.168;2023-12-07T00:37:13;26.73;;;14.20;;
22007;SDS011;11168;56.976;24.168;2023-12-07T00:39:43;26.50;;;13.67;;
22007;SDS011;11168;56.976;24.168;2023-12-07T00:42:10;28.05;;;14.35;;
22007;SDS011;11168;56.976;24.168;2023-12-07T00:44:40;28.00;;;13.45;;
22007;SDS011;11168;56.976;24.168;2023-12-07T00:47:09;27.05;;;14.45;;
22007;SDS011;11168;56.976;24.168;2023-12-07T00:49:38;29.25;;;14.40;;
22007;SDS011;11168;56.976;24.168;2023-12-07T00:52:08;26.30;;;14.70;;
22007;SDS011;11168;56.976;24.168;2023-12-07T00:54:35;28.20;;;14.30;;
22007;SDS011;11168;56.976;24.168;2023-12-07T00:57:07;29.15;;;14.82;;
22007;SDS011;11168;56.976;24.168;2023-12-07T00:59:35;30.25;;;15.38;;
22007;SDS011;11168;56.976;24.168;2023-12-07T01:02:03;29.63;;;15.20;;
22007;SDS011;11168;56.976;24.168;2023-12-07T01:04:32;30.50;;;15.07;;
22007;SDS011;11168;56.976;24.168;2023-12-07T01:06:59;29.70;;;15.20;;
22007;SDS011;11168;56.976;24.168;2023-12-07T01:09:28;31.00;;;15.10;;
22007;SDS011;11168;56.976;24.168;2023-12-07T01:11:55;27.67;;;14.57;;
22007;SDS011;11168;56.976;24.168;2023-12-07T01:14:24;28.00;;;14.75;;
22007;SDS011;11168;56.976;24.168;2023-12-07T01:16:51;31.63;;;15.48;;
22007;SDS011;11168;56.976;24.168;2023-12-07T01:19:19;30.42;;;16.00;;
22007;SDS011;11168;56.976;24.168;2023-12-07T01:21:46;26.30;;;14.75;;
22007;SDS011;11168;56.976;24.168;2023-12-07T01:24:13;28.95;;;15.68;;
22007;SDS011;11168;56.976;24.168;2023-12-07T01:26:42;32.30;;;15.38;;
22007;SDS011;11168;56.976;24.168;2023-12-07T01:29:13;30.37;;;15.73;;
22007;SDS011;11168;56.976;24.168;2023-12-07T01:31:40;26.45;;;13.18;;
22007;SDS011;11168;56.976;24.168;2023-12-07T01:34:07;29.48;;;14.40;;
22007;SDS011;11168;56.976;24.168;2023-12-07T01:36:34;29.17;;;15.23;;
22007;SDS011;11168;56.976;24.168;2023-12-07T01:39:03;28.70;;;14.95;;
22007;SDS011;11168;56.976;24.168;2023-12-07T01:41:31;28.35;;;15.27;;
22007;SDS011;11168;56.976;24.168;2023-12-07T01:44:00;28.25;;;14.50;;
22007;SDS011;11168;56.976;24.168;2023-12-07T01:46:27;34.25;;;15.77;;
22007;SDS011;11168;56.976;24.168;2023-12-07T01:48:54;28.67;;;14.60;;
22007;SDS011;11168;56.976;24.168;2023-12-07T01:51:23;29.75;;;14.80;;
22007;SDS011;11168;56.976;24.168;2023-12-07T01:53:50;27.65;;;14.50;;
22007;SDS011;11168;56.976;24.168;2023-12-07T01:56:17;30.80;;;15.07;;
22007;SDS011;11168;56.976;24.168;2023-12-07T01:58:45;29.42;;;14.85;;
22007;SDS011;11168;56.976;24.168;2023-12-07T02:01:13;29.63;;;14.55;;
22007;SDS011;11168;56.976;24.168;2023-12-07T02:03:42;28.05;;;14.32;;
22007;SDS011;11168;56.976;24.168;2023-12-07T02:06:10;30.17;;;14.20;;
22007;SDS011;11168;56.976;24.168;2023-12-07T02:08:39;33.63;;;17.13;;
22007;SDS011;11168;56.976;24.168;2023-12-07T02:11:08;29.20;;;15.63;;
22007;SDS011;11168;56.976;24.168;2023-12-07T02:13:37;29.63;;;15.82;;
22007;SDS011;11168;56.976;24.168;2023-12-07T02:16:29;31.50;;;15.80;;
22007;SDS011;11168;56.976;24.168;2023-12-07T02:22:02;29.02;;;14.63;;
22007;SDS011;11168;56.976;24.168;2023-12-07T02:24:36;30.48;;;15.48;;
22007;SDS011;11168;56.976;24.168;2023-12-07T02:27:09;32.97;;;17.02;;
22007;SDS011;11168;56.976;24.168;2023-12-07T02:29:36;29.60;;;15.00;;
22007;SDS011;11168;56.976;24.168;2023-12-07T02:32:06;36.27;;;17.87;;
22007;SDS011;11168;56.976;24.168;2023-12-07T02:34:33;38.03;;;18.52;;
22007;SDS011;11168;56.976;24.168;2023-12-07T02:37:04;37.65;;;18.55;;
22007;SDS011;11168;56.976;24.168;2023-12-07T02:39:32;40.13;;;18.42;;
22007;SDS011;11168;56.976;24.168;2023-12-07T02:41:59;38.60;;;19.15;;
22007;SDS011;11168;56.976;24.168;2023-12-07T02:44:27;43.05;;;19.65;;
22007;SDS011;11168;56.976;24.168;2023-12-07T02:46:54;38.92;;;20.40;;
22007;SDS011;11168;56.976;24.168;2023-12-07T02:49:22;37.30;;;18.92;;
22007;SDS011;11168;56.976;24.168;2023-12-07T02:51:49;38.72;;;19.35;;
22007;SDS011;11168;56.976;24.168;2023-12-07T02:54:16;34.85;;;17.85;;
22007;SDS011;11168;56.976;24.168;2023-12-07T02:56:47;37.05;;;18.15;;
22007;SDS011;11168;56.976;24.168;2023-12-07T02:59:15;36.90;;;18.65;;
22007;SDS011;11168;56.976;24.168;2023-12-07T03:01:43;34.70;;;18.23;;
22007;SDS011;11168;56.976;24.168;2023-12-07T03:04:10;36.45;;;17.65;;
22007;SDS011;11168;56.976;24.168;2023-12-07T03:06:37;35.47;;;16.88;;
22007;SDS011;11168;56.976;24.168;2023-12-07T03:09:04;34.55;;;17.20;;
22007;SDS011;11168;56.976;24.168;2023-12-07T03:11:31;31.25;;;16.63;;
22007;SDS011;11168;56.976;24.168;2023-12-07T03:13:58;31.25;;;16.63;;
22007;SDS011;11168;56.976;24.168;2023-12-07T03:16:25;31.20;;;16.95;;
22007;SDS011;11168;56.976;24.168;2023-12-07T03:18:52;31.13;;;16.48;;
22007;SDS011;11168;56.976;24.168;2023-12-07T03:21:19;30.80;;;15.57;;
22007;SDS011;11168;56.976;24.168;2023-12-07T03:23:49;31.45;;;17.15;;
22007;SDS011;11168;56.976;24.168;2023-12-07T03:26:16;22.92;;;12.25;;
22007;SDS011;11168;56.976;24.168;2023-12-07T03:28:43;25.75;;;12.77;;
22007;SDS011;11168;56.976;24.168;2023-12-07T03:31:12;25.75;;;13.10;;
22007;SDS011;11168;56.976;24.168;2023-12-07T03:33:41;24.73;;;12.98;;
22007;SDS011;11168;56.976;24.168;2023-12-07T03:36:12;24.42;;;12.95;;
22007;SDS011;11168;56.976;24.168;2023-12-07T03:38:39;24.77;;;13.75;;
22007;SDS011;11168;56.976;24.168;2023-12-07T03:41:06;28.60;;;14.02;;
22007;SDS011;11168;56.976;24.168;2023-12-07T03:43:35;26.70;;;13.27;;
22007;SDS011;11168;56.976;24.168;2023-12-07T03:46:05;27.67;;;14.80;;
22007;SDS011;11168;56.976;24.168;2023-12-07T03:48:33;27.80;;;13.90;;
22007;SDS011;11168;56.976;24.168;2023-12-07T03:51:00;31.55;;;14.35;;
22007;SDS011;11168;56.976;24.168;2023-12-07T03:53:28;28.85;;;14.60;;
22007;SDS011;11168;56.976;24.168;2023-12-07T03:55:57;27.55;;;13.32;;
22007;SDS011;11168;56.976;24.168;2023-12-07T03:58:24;26.08;;;13.68;;
22007;SDS011;11168;56.976;24.168;2023-12-07T04:00:51;27.05;;;13.88;;
22007;SDS011;11168;56.976;24.168;2023-12-07T04:03:21;28.83;;;14.70;;
22007;SDS011;11168;56.976;24.168;2023-12-07T04:05:48;25.08;;;14.15;;
22007;SDS011;11168;56.976;24.168;2023-12-07T04:08:15;27.00;;;14.95;;
22007;SDS011;11168;56.976;24.168;2023-12-07T04:10:45;25.95;;;13.65;;
22007;SDS011;11168;56.976;24.168;2023-12-07T04:13:15;28.35;;;14.40;;
22007;SDS011;11168;56.976;24.168;2023-12-07T04:15:45;28.92;;;14.32;;
22007;SDS011;11168;56.976;24.168;2023-12-07T04:18:12;29.90;;;15.88;;
22007;SDS011;11168;56.976;24.168;2023-12-07T04:20:42;31.05;;;16.23;;
22007;SDS011;11168;56.976;24.168;2023-12-07T04:23:09;34.33;;;16.20;;
22007;SDS011;11168;56.976;24.168;2023-12-07T04:25:40;31.00;;;16.13;;
22007;SDS011;11168;56.976;24.168;2023-12-07T04:28:07;30.05;;;16.35;;
22007;SDS011;11168;56.976;24.168;2023-12-07T04:30:35;32.08;;;16.48;;
22007;SDS011;11168;56.976;24.168;2023-12-07T04:33:03;27.30;;;14.82;;
22007;SDS011;11168;56.976;24.168;2023-12-07T04:35:30;31.88;;;15.43;;
22007;SDS011;11168;56.976;24.168;2023-12-07T04:37:57;30.40;;;14.30;;
22007;SDS011;11168;56.976;24.168;2023-12-07T04:40:25;31.73;;;15.35;;
22007;SDS011;11168;56.976;24.168;2023-12-07T04:42:52;33.15;;;16.27;;
22007;SDS011;11168;56.976;24.168;2023-12-07T04:45:19;32.95;;;15.70;;
22007;SDS011;11168;56.976;24.168;2023-12-07T04:47:47;27.88;;;15.40;;
22007;SDS011;11168;56.976;24.168;2023-12-07T04:50:14;31.42;;;15.80;;
22007;SDS011;11168;56.976;24.168;2023-12-07T04:52:41;34.75;;;16.25;;
22007;SDS011;11168;56.976;24.168;2023-12-07T04:55:08;30.23;;;15.23;;
22007;SDS011;11168;56.976;24.168;2023-12-07T04:57:36;28.65;;;14.30;;
22007;SDS011;11168;56.976;24.168;2023-12-07T05:00:03;29.92;;;14.60;;
22007;SDS011;11168;56.976;24.168;2023-12-07T05:02:35;32.85;;;15.95;;
22007;SDS011;11168;56.976;24.168;2023-12-07T05:05:04;31.02;;;16.17;;
22007;SDS011;11168;56.976;24.168;2023-12-07T05:07:31;29.63;;;15.57;;
22007;SDS011;11168;56.976;24.168;2023-12-07T05:10:01;31.05;;;14.55;;
22007;SDS011;11168;56.976;24.168;2023-12-07T05:12:29;32.97;;;16.55;;
22007;SDS011;11168;56.976;24.168;2023-12-07T05:14:56;31.95;;;16.02;;
22007;SDS011;11168;56.976;24.168;2023-12-07T05:17:23;33.92;;;16.65;;
22007;SDS011;11168;56.976;24.168;2023-12-07T05:19:51;33.97;;;17.60;;
22007;SDS011;11168;56.976;24.168;2023-12-07T05:22:20;33.63;;;17.80;;
22007;SDS011;11168;56.976;24.168;2023-12-07T05:24:48;34.05;;;16.02;;
22007;SDS011;11168;56.976;24.168;2023-12-07T05:27:16;38.45;;;19.15;;
22007;SDS011;11168;56.976;24.168;2023-12-07T05:29:47;35.83;;;18.15;;
22007;SDS011;11168;56.976;24.168;2023-12-07T05:32:14;38.75;;;18.52;;
22007;SDS011;11168;56.976;24.168;2023-12-07T05:34:41;38.40;;;17.65;;
22007;SDS011;11168;56.976;24.168;2023-12-07T05:37:09;35.28;;;17.42;;
22007;SDS011;11168;56.976;24.168;2023-12-07T05:39:37;35.70;;;17.33;;
22007;SDS011;11168;56.976;24.168;2023-12-07T05:42:04;32.97;;;16.90;;
22007;SDS011;11168;56.976;24.168;2023-12-07T05:44:31;32.63;;;17.40;;
22007;SDS011;11168;56.976;24.168;2023-12-07T05:46:58;36.65;;;17.35;;
22007;SDS011;11168;56.976;24.168;2023-12-07T05:49:26;36.58;;;17.38;;
22007;SDS011;11168;56.976;24.168;2023-12-07T05:51:54;34.38;;;16.77;;
22007;SDS011;11168;56.976;24.168;2023-12-07T05:54:21;33.05;;;16.75;;
22007;SDS011;11168;56.976;24.168;2023-12-07T05:56:50;36.45;;;18.10;;
22007;SDS011;11168;56.976;24.168;2023-12-07T05:59:17;36.15;;;18.00;;
22007;SDS011;11168;56.976;24.168;2023-12-07T06:01:44;37.13;;;18.27;;
22007;SDS011;11168;56.976;24.168;2023-12-07T06:04:13;37.22;;;17.85;;
22007;SDS011;11168;56.976;24.168;2023-12-07T06:06:42;40.13;;;18.52;;
22007;SDS011;11168;56.976;24.168;2023-12-07T06:09:11;39.20;;;18.33;;
22007;SDS011;11168;56.976;24.168;2023-12-07T06:11:37;40.60;;;20.20;;
22007;SDS011;11168;56.976;24.168;2023-12-07T06:14:07;36.10;;;20.13;;
22007;SDS011;11168;56.976;24.168;2023-12-07T06:16:35;37.13;;;18.27;;
22007;SDS011;11168;56.976;24.168;2023-12-07T06:19:03;35.53;;;18.30;;
22007;SDS011;11168;56.976;24.168;2023-12-07T06:21:30;41.65;;;18.85;;
22007;SDS011;11168;56.976;24.168;2023-12-07T06:23:58;38.60;;;19.02;;
22007;SDS011;11168;56.976;24.168;2023-12-07T06:26:25;38.97;;;19.38;;
22007;SDS011;11168;56.976;24.168;2023-12-07T06:28:53;38.67;;;18.52;;
22007;SDS011;11168;56.976;24.168;2023-12-07T06:31:21;36.33;;;17.38;;
22007;SDS011;11168;56.976;24.168;2023-12-07T06:33:48;36.38;;;18.02;;
22007;SDS011;11168;56.976;24.168;2023-12-07T06:36:22;34.28;;;17.33;;
22007;SDS011;11168;56.976;24.168;2023-12-07T06:38:50;36.70;;;18.83;;
22007;SDS011;11168;56.976;24.168;2023-12-07T06:41:18;35.72;;;17.08;;
22007;SDS011;11168;56.976;24.168;2023-12-07T06:43:45;35.80;;;18.80;;
22007;SDS011;11168;56.976;24.168;2023-12-07T06:46:13;36.78;;;18.38;;
22007;SDS011;11168;56.976;24.168;2023-12-07T06:48:40;36.60;;;17.98;;
22007;SDS011;11168;56.976;24.168;2023-12-07T06:51:08;35.53;;;17.50;;
22007;SDS011;11168;56.976;24.168;2023-12-07T06:53:38;38.42;;;17.75;;
22007;SDS011;11168;56.976;24.168;2023-12-07T06:56:07;38.78;;;18.67;;
22007;SDS011;11168;56.976;24.168;2023-12-07T06:58:34;42.63;;;18.75;;
22007;SDS011;11168;56.976;24.168;2023-12-07T07:01:02;37.45;;;17.95;;
22007;SDS011;11168;56.976;24.168;2023-12-07T07:03:29;36.15;;;17.38;;
22007;SDS011;11168;56.976;24.168;2023-12-07T07:05:56;36.88;;;18.27;;
22007;SDS011;11168;56.976;24.168;2023-12-07T07:08:25;38.35;;;17.55;;
22007;SDS011;11168;56.976;24.168;2023-12-07T07:10:52;39.22;;;17.80;;
22007;SDS011;11168;56.976;24.168;2023-12-07T07:13:19;37.67;;;19.25;;
22007;SDS011;11168;56.976;24.168;2023-12-07T07:15:47;37.78;;;18.17;;
22007;SDS011;11168;56.976;24.168;2023-12-07T07:18:15;38.60;;;18.88;;
22007;SDS011;11168;56.976;24.168;2023-12-07T07:20:42;37.83;;;17.85;;
22007;SDS011;11168;56.976;24.168;2023-12-07T07:23:10;38.83;;;18.48;;
22007;SDS011;11168;56.976;24.168;2023-12-07T07:25:40;34.63;;;16.55;;
22007;SDS011;11168;56.976;24.168;2023-12-07T07:28:09;36.45;;;16.23;;
22007;SDS011;11168;56.976;24.168;2023-12-07T07:30:36;35.08;;;16.80;;
22007;SDS011;11168;56.976;24.168;2023-12-07T07:33:03;33.42;;;16.25;;
22007;SDS011;11168;56.976;24.168;2023-12-07T07:35:30;35.83;;;17.33;;
22007;SDS011;11168;56.976;24.168;2023-12-07T07:37:57;42.08;;;17.65;;
22007;SDS011;11168;56.976;24.168;2023-12-07T07:40:25;32.75;;;16.75;;
22007;SDS011;11168;56.976;24.168;2023-12-07T07:42:52;40.20;;;17.42;;
22007;SDS011;11168;56.976;24.168;2023-12-07T07:45:19;39.53;;;18.15;;
22007;SDS011;11168;56.976;24.168;2023-12-07T07:47:47;36.90;;;17.90;;
22007;SDS011;11168;56.976;24.168;2023-12-07T07:50:15;41.85;;;16.75;;
22007;SDS011;11168;56.976;24.168;2023-12-07T07:52:43;34.90;;;16.35;;
22007;SDS011;11168;56.976;24.168;2023-12-07T07:55:11;35.25;;;17.70;;
22007;SDS011;11168;56.976;24.168;2023-12-07T07:57:38;39.38;;;17.23;;
22007;SDS011;11168;56.976;24.168;2023-12-07T08:00:06;36.95;;;16.60;;
22007;SDS011;11168;56.976;24.168;2023-12-07T08:02:36;38.67;;;17.30;;
22007;SDS011;11168;56.976;24.168;2023-12-07T08:05:03;34.53;;;16.58;;
22007;SDS011;11168;56.976;24.168;2023-12-07T08:07:35;36.55;;;16.60;;
22007;SDS011;11168;56.976;24.168;2023-12-07T08:10:02;36.00;;;16.70;;
22007;SDS011;11168;56.976;24.168;2023-12-07T08:12:30;35.85;;;16.63;;
22007;SDS011;11168;56.976;24.168;2023-12-07T08:14:57;36.17;;;16.63;;
22007;SDS011;11168;56.976;24.168;2023-12-07T08:17:25;33.45;;;14.85;;
22007;SDS011;11168;56.976;24.168;2023-12-07T08:19:53;34.80;;;16.48;;
22007;SDS011;11168;56.976;24.168;2023-12-07T08:22:21;34.03;;;15.38;;
22007;SDS011;11168;56.976;24.168;2023-12-07T08:24:48;35.47;;;16.40;;
22007;SDS011;11168;56.976;24.168;2023-12-07T08:27:30;34.42;;;16.48;;
22007;SDS011;11168;56.976;24.168;2023-12-07T08:30:00;35.30;;;16.17;;
22007;SDS011;11168;56.976;24.168;2023-12-07T08:32:28;32.15;;;16.25;;
22007;SDS011;11168;56.976;24.168;2023-12-07T08:34:56;32.97;;;16.08;;
22007;SDS011;11168;56.976;24.168;2023-12-07T08:37:23;34.95;;;15.90;;
22007;SDS011;11168;56.976;24.168;2023-12-07T08:39:51;35.05;;;16.10;;
22007;SDS011;11168;56.976;24.168;2023-12-07T08:42:19;36.53;;;16.75;;
22007;SDS011;11168;56.976;24.168;2023-12-07T08:44:46;32.65;;;15.95;;
22007;SDS011;11168;56.976;24.168;2023-12-07T08:47:13;42.35;;;17.30;;
22007;SDS011;11168;56.976;24.168;2023-12-07T08:49:40;32.30;;;15.50;;
22007;SDS011;11168;56.976;24.168;2023-12-07T08:52:08;35.10;;;16.65;;
22007;SDS011;11168;56.976;24.168;2023-12-07T08:54:55;30.52;;;15.30;;
22007;SDS011;11168;56.976;24.168;2023-12-07T08:57:22;33.08;;;15.48;;
22007;SDS011;11168;56.976;24.168;2023-12-07T08:59:51;29.55;;;15.55;;
22007;SDS011;11168;56.976;24.168;2023-12-07T09:02:20;31.80;;;17.08;;
22007;SDS011;11168;56.976;24.168;2023-12-07T09:05:07;33.88;;;16.13;;
22007;SDS011;11168;56.976;24.168;2023-12-07T09:07:35;34.80;;;15.55;;
22007;SDS011;11168;56.976;24.168;2023-12-07T09:10:04;36.50;;;17.00;;
22007;SDS011;11168;56.976;24.168;2023-12-07T09:12:32;34.92;;;16.85;;
22007;SDS011;11168;56.976;24.168;2023-12-07T09:15:04;32.78;;;17.08;;
22007;SDS011;11168;56.976;24.168;2023-12-07T09:17:34;33.55;;;16.13;;
22007;SDS011;11168;56.976;24.168;2023-12-07T09:20:02;34.53;;;16.58;;
22007;SDS011;11168;56.976;24.168;2023-12-07T09:22:30;38.38;;;17.10;;
22007;SDS011;11168;56.976;24.168;2023-12-07T09:25:03;35.70;;;17.70;;
22007;SDS011;11168;56.976;24.168;2023-12-07T09:27:31;34.65;;;16.95;;
22007;SDS011;11168;56.976;24.168;2023-12-07T09:30:01;35.35;;;16.95;;
22007;SDS011;11168;56.976;24.168;2023-12-07T09:32:29;38.65;;;17.67;;
22007;SDS011;11168;56.976;24.168;2023-12-07T09:35:03;33.08;;;16.92;;
22007;SDS011;11168;56.976;24.168;2023-12-07T09:37:34;33.15;;;15.85;;
22007;SDS011;11168;56.976;24.168;2023-12-07T09:40:01;32.55;;;17.85;;
22007;SDS011;11168;56.976;24.168;2023-12-07T09:42:31;32.25;;;16.25;;
22007;SDS011;11168;56.976;24.168;2023-12-07T09:45:02;32.28;;;15.80;;
22007;SDS011;11168;56.976;24.168;2023-12-07T09:47:31;31.73;;;16.38;;
22007;SDS011;11168;56.976;24.168;2023-12-07T09:50:04;35.22;;;16.35;;
22007;SDS011;11168;56.976;24.168;2023-12-07T09:52:35;34.22;;;16.92;;
22007;SDS011;11168;56.976;24.168;2023-12-07T09:55:03;34.58;;;17.70;;
22007;SDS011;11168;56.976;24.168;2023-12-07T09:57:31;32.90;;;18.42;;
22007;SDS011;11168;56.976;24.168;2023-12-07T10:00:02;35.35;;;16.88;;
22007;SDS011;11168;56.976;24.168;2023-12-07T10:02:30;35.90;;;17.27;;
22007;SDS011;11168;56.976;24.168;2023-12-07T10:05:10;36.53;;;17.80;;
22007;SDS011;11168;56.976;24.168;2023-12-07T10:07:40;35.40;;;16.87;;
22007;SDS011;11168;56.976;24.168;2023-12-07T10:10:09;29.35;;;16.80;;
22007;SDS011;11168;56.976;24.168;2023-12-07T10:12:47;36.05;;;17.10;;
22007;SDS011;11168;56.976;24.168;2023-12-07T10:15:18;31.50;;;15.80;;
22007;SDS011;11168;56.976;24.168;2023-12-07T10:17:49;37.50;;;16.27;;
22007;SDS011;11168;56.976;24.168;2023-12-07T10:20:18;31.20;;;15.77;;
22007;SDS011;11168;56.976;24.168;2023-12-07T10:23:05;30.35;;;15.38;;
22007;SDS011;11168;56.976;24.168;2023-12-07T10:25:41;30.85;;;15.95;;
22007;SDS011;11168;56.976;24.168;2023-12-07T10:28:09;33.70;;;16.75;;
22007;SDS011;11168;56.976;24.168;2023-12-07T10:30:40;31.23;;;16.00;;
22007;SDS011;11168;56.976;24.168;2023-12-07T10:33:09;36.28;;;17.27;;
22007;SDS011;11168;56.976;24.168;2023-12-07T10:35:39;29.60;;;16.83;;
22007;SDS011;11168;56.976;24.168;2023-12-07T10:38:07;29.38;;;15.48;;
22007;SDS011;11168;56.976;24.168;2023-12-07T10:40:35;30.20;;;15.82;;
22007;SDS011;11168;56.976;24.168;2023-12-07T10:43:04;31.63;;;16.90;;
22007;SDS011;11168;56.976;24.168;2023-12-07T10:45:33;29.48;;;14.82;;
22007;SDS011;11168;56.976;24.168;2023-12-07T10:48:10;29.27;;;15.70;;
22007;SDS011;11168;56.976;24.168;2023-12-07T10:50:41;28.95;;;15.70;;
22007;SDS011;11168;56.976;24.168;2023-12-07T10:53:19;27.30;;;15.10;;
22007;SDS011;11168;56.976;24.168;2023-12-07T10:55:59;29.02;;;14.60;;
22007;SDS011;11168;56.976;24.168;2023-12-07T10:58:28;27.15;;;14.35;;
22007;SDS011;11168;56.976;24.168;2023-12-07T11:00:58;28.85;;;14.20;;
22007;SDS011;11168;56.976;24.168;2023-12-07T11:03:27;29.42;;;15.45;;
22007;SDS011;11168;56.976;24.168;2023-12-07T11:05:56;28.10;;;15.27;;
22007;SDS011;11168;56.976;24.168;2023-12-07T11:13:52;27.63;;;14.57;;
22007;SDS011;11168;56.976;24.168;2023-12-07T11:19:01;28.77;;;14.95;;
22007;SDS011;11168;56.976;24.168;2023-12-07T11:21:31;30.65;;;15.00;;
22007;SDS011;11168;56.976;24.168;2023-12-07T11:24:02;33.13;;;15.73;;
22007;SDS011;11168;56.976;24.168;2023-12-07T11:26:30;28.42;;;14.27;;
22007;SDS011;11168;56.976;24.168;2023-12-07T11:28:57;32.05;;;15.27;;
22007;SDS011;11168;56.976;24.168;2023-12-07T11:31:26;27.83;;;13.20;;
22007;SDS011;11168;56.976;24.168;2023-12-07T11:33:54;28.25;;;14.18;;
22007;SDS011;11168;56.976;24.168;2023-12-07T11:36:21;25.00;;;13.30;;
22007;SDS011;11168;56.976;24.168;2023-12-07T11:41:50;29.73;;;13.65;;
22007;SDS011;11168;56.976;24.168;2023-12-07T11:44:20;28.08;;;15.25;;
22007;SDS011;11168;56.976;24.168;2023-12-07T11:46:51;29.35;;;14.68;;
22007;SDS011;11168;56.976;24.168;2023-12-07T11:49:18;26.55;;;14.18;;
22007;SDS011;11168;56.976;24.168;2023-12-07T11:52:01;26.90;;;14.15;;
22007;SDS011;11168;56.976;24.168;2023-12-07T11:54:40;25.70;;;13.55;;
22007;SDS011;11168;56.976;24.168;2023-12-07T11:57:08;28.60;;;14.90;;
22007;SDS011;11168;56.976;24.168;2023-12-07T11:59:37;24.65;;;13.75;;
22007;SDS011;11168;56.976;24.168;2023-12-07T12:02:06;28.25;;;14.10;;
22007;SDS011;11168;56.976;24.168;2023-12-07T12:04:34;27.50;;;13.15;;
22007;SDS011;11168;56.976;24.168;2023-12-07T12:07:04;24.60;;;13.68;;
22007;SDS011;11168;56.976;24.168;2023-12-07T12:09:31;26.27;;;14.40;;
22007;SDS011;11168;56.976;24.168;2023-12-07T12:12:00;25.23;;;12.80;;
22007;SDS011;11168;56.976;24.168;2023-12-07T12:14:31;26.40;;;14.13;;
22007;SDS011;11168;56.976;24.168;2023-12-07T12:16:58;25.35;;;13.98;;
22007;SDS011;11168;56.976;24.168;2023-12-07T12:19:26;26.65;;;13.25;;
22007;SDS011;11168;56.976;24.168;2023-12-07T12:22:02;29.95;;;13.93;;
22007;SDS011;11168;56.976;24.168;2023-12-07T12:24:39;25.90;;;13.85;;
22007;SDS011;11168;56.976;24.168;2023-12-07T12:27:07;24.63;;;12.90;;
22007;SDS011;11168;56.976;24.168;2023-12-07T12:29:34;25.48;;;13.10;;
22007;SDS011;11168;56.976;24.168;2023-12-07T12:32:03;27.48;;;14.13;;
22007;SDS011;11168;56.976;24.168;2023-12-07T12:34:33;26.80;;;14.48;;
22007;SDS011;11168;56.976;24.168;2023-12-07T12:37:05;27.88;;;14.18;;
22007;SDS011;11168;56.976;24.168;2023-12-07T12:39:33;24.38;;;13.52;;
22007;SDS011;11168;56.976;24.168;2023-12-07T12:42:02;25.67;;;13.23;;
22007;SDS011;11168;56.976;24.168;2023-12-07T12:44:38;25.17;;;13.05;;
22007;SDS011;11168;56.976;24.168;2023-12-07T12:47:05;27.65;;;14.40;;
22007;SDS011;11168;56.976;24.168;2023-12-07T12:49:39;25.85;;;13.82;;
22007;SDS011;11168;56.976;24.168;2023-12-07T12:52:10;26.55;;;14.25;;
22007;SDS011;11168;56.976;24.168;2023-12-07T12:54:39;25.33;;;14.25;;
22007;SDS011;11168;56.976;24.168;2023-12-07T12:57:09;21.42;;;12.20;;
22007;SDS011;11168;56.976;24.168;2023-12-07T12:59:36;28.27;;;13.68;;
22007;SDS011;11168;56.976;24.168;2023-12-07T13:02:07;22.33;;;12.50;;
22007;SDS011;11168;56.976;24.168;2023-12-07T13:04:36;22.98;;;12.23;;
22007;SDS011;11168;56.976;24.168;2023-12-07T13:07:07;23.80;;;12.48;;
22007;SDS011;11168;56.976;24.168;2023-12-07T13:09:35;24.13;;;13.15;;
22007;SDS011;11168;56.976;24.168;2023-12-07T13:12:02;24.67;;;12.90;;
22007;SDS011;11168;56.976;24.168;2023-12-07T13:14:34;23.83;;;12.98;;
22007;SDS011;11168;56.976;24.168;2023-12-07T13:17:02;21.13;;;12.00;;
22007;SDS011;11168;56.976;24.168;2023-12-07T13:19:36;23.77;;;13.90;;
22007;SDS011;11168;56.976;24.168;2023-12-07T13:22:04;25.75;;;13.65;;
22007;SDS011;11168;56.976;24.168;2023-12-07T13:24:33;23.20;;;12.98;;
22007;SDS011;11168;56.976;24.168;2023-12-07T13:27:01;25.92;;;12.98;;
22007;SDS011;11168;56.976;24.168;2023-12-07T13:29:28;28.20;;;14.15;;
22007;SDS011;11168;56.976;24.168;2023-12-07T13:32:02;24.48;;;13.43;;
22007;SDS011;11168;56.976;24.168;2023-12-07T13:34:30;27.58;;;13.73;;
22007;SDS011;11168;56.976;24.168;2023-12-07T13:36:58;24.55;;;12.65;;
22007;SDS011;11168;56.976;24.168;2023-12-07T13:39:26;23.42;;;13.00;;
22007;SDS011;11168;56.976;24.168;2023-12-07T13:41:57;27.10;;;13.75;;
22007;SDS011;11168;56.976;24.168;2023-12-07T13:44:27;24.85;;;13.43;;
22007;SDS011;11168;56.976;24.168;2023-12-07T13:46:55;23.55;;;13.60;;
22007;SDS011;11168;56.976;24.168;2023-12-07T13:49:24;27.42;;;14.18;;
22007;SDS011;11168;56.976;24.168;2023-12-07T13:51:59;24.88;;;13.00;;
22007;SDS011;11168;56.976;24.168;2023-12-07T13:54:36;26.63;;;13.02;;
22007;SDS011;11168;56.976;24.168;2023-12-07T13:57:19;23.00;;;12.93;;
22007;SDS011;11168;56.976;24.168;2023-12-07T13:59:54;26.48;;;13.95;;
22007;SDS011;11168;56.976;24.168;2023-12-07T14:02:22;22.60;;;12.18;;
22007;SDS011;11168;56.976;24.168;2023-12-07T14:04:50;26.98;;;13.88;;
22007;SDS011;11168;56.976;24.168;2023-12-07T14:07:18;31.48;;;13.65;;
22007;SDS011;11168;56.976;24.168;2023-12-07T14:09:48;24.70;;;13.98;;
22007;SDS011;11168;56.976;24.168;2023-12-07T14:12:24;26.65;;;14.05;;
22007;SDS011;11168;56.976;24.168;2023-12-07T14:14:52;25.67;;;13.07;;
22007;SDS011;11168;56.976;24.168;2023-12-07T14:17:22;24.48;;;13.32;;
22007;SDS011;11168;56.976;24.168;2023-12-07T14:19:53;23.88;;;13.10;;
22007;SDS011;11168;56.976;24.168;2023-12-07T14:22:35;24.33;;;13.32;;
22007;SDS011;11168;56.976;24.168;2023-12-07T14:25:05;21.63;;;11.93;;
22007;SDS011;11168;56.976;24.168;2023-12-07T14:27:32;23.08;;;13.48;;
22007;SDS011;11168;56.976;24.168;2023-12-07T14:30:00;22.63;;;12.32;;
22007;SDS011;11168;56.976;24.168;2023-12-07T14:32:30;23.20;;;12.40;;